Disclaimer

Please do not use the information listed here in-flight or in-navigation, as they are not provided to us by the airports but are provided by volunteers, so they might be outdated.

Search


Regions


Airport information page

Radio informations:
DESIDERIO TWR - 34.95 MHz
PMSV METRO - 37.3 MHz
DESIDERIO OPS - 37.95 MHz
DESIDERIO GND - 119.5 MHz
Automatic Terminal Information Service (ATIS) - 108.2 MHz
BRICKWALL - 120.0 MHz
OSAN APP/DEP - 127.9 MHz

Airport informations:
Latitude: 36° 57' 43.97" N
Longitude: 127° 01' 51.86" E
Elevation: 51 feet - 16 meters
Operating hours: From sunrise to sunset (SR-SS)
Operating agency: U.S.ARMY
Timezone: UTC+9
Fuel: JP-8, SemiKeroscene MIL Spec T-83133, without icing inhibitor

Runway information:
14/32 - 8217 x 150 feet< - >2505 x 46 meters

Recent METARs:
RKSG 150956Z 00000KT 4SM BR CLR 11/07 A3022 RMK AO2A SLP237 T01110070 $
RKSG 151056Z 00000KT 4SM BR BKN150 10/09 A3023 RMK AO2A SLP241 T00970092 $
RKSG 151156Z 00000KT 4SM BR OVC160 10/09 A3024 RMK AO2A SLP244 T00960087 10157 20094 52008 $

Airport on the map: